Aérodrome :
LOGIN :

S'inscrire | Disclaimer

   EN    FR    IT 

 










Légende :    VFR   VFR Marginal   IFR   IFR Intensif   IFR Très Intensif
Visi : 
Plafond : 
>= 8 km
>= 3000ft
5 à 8 km
1000 à 3000 ft
1500m à 5 km
500 à 1000 ft
800 à 1500m
200 à 500 ft
< 800m
< 200 ft
Symboles :   Orages  Brouillard  Fortes neiges  Fortes précipitations  Vent > 20 kt
SIGMETs :   Divers  Orages  Givrage  Turbulence  Onde Orograph.  Cendres Volcan.






- Altitude de l'aérodrome : 297 ft
- Code IATA : UIP


LFRQ - Quimper Pluguffan

DERNIER METAR :
  • 191830Z AUTO 17009KT 9999 // FEW028 SCT036 BKN045 11/06 Q1012

METARs EXPIRÉS :
  • 191800Z AUTO 17008KT 9999 // FEW042 BKN160 OVC210 10/06 Q1012
  • 191730Z AUTO 18008KT 150V210 9999 // BKN048 OVC170 11/06 Q1012
  • 191700Z AUTO 17008KT 9999 // FEW028 SCT046 OVC170 11/06 Q1012
  • 191630Z AUTO 18009KT 9999 // SCT026 SCT043 BKN049 11/07 Q1012
  • 191600Z AUTO 18009KT 9999 // BKN024 BKN049 11/07 Q1012

TAF TAF LFRQ
Valide du 19 à 18h jusqu'au 20 à 18h UTC


191700Z 1918/2018 18009KT 9999 SCT026 SCT043 BKN049
BECMG 1920/1922 16017G27KT
BECMG 2003/2005 4000 BR BKN005
BECMG 2008/2010 9999 BKN010
TEMPO 2014/2018 5000 SHRA BKN016TCU



MET'MAP, la Météo Aéronautique d'un coup d'oeil ! - Copyright ORBIFLY Décembre 2007 - Disclaimer

ORBIFLY MET'MAP TEAM :

Programmation & Développement : Alexandra Zaïnal
Conception & Développement : Baudouin d'Aumeries
Co-Programmation & Développement : Marc-Olivier Méhu
Soutien technique & logistique : Manuel Goepfert

Contact : metmap@orbifly.com




SOURCES & CREDITS :

   NOAA